Time;durP1;ratioP1;P1;durP2;ratioP2;P2;SDS_P1;SDS_P2;PMS_P1;PMS_P2;Temp;Humidity;BMP_temperature;BMP_pressure;BME280_temperature;BME280_humidity;BME280_pressure;Samples;Min_cycle;Max_cycle;Signal;HPM_P1;HPM_P2
2023/07/25 00:01:49;;;;;;;;;;;21.40;57.40;;;;;;5071481;28;19928;-53
2023/07/25 00:04:16;;;;;;;;;;;21.40;57.40;;;;;;5086946;28;19978;-51
2023/07/25 00:06:43;;;;;;;;;;;21.40;57.40;;;;;;5092850;28;19929;-56
2023/07/25 00:09:09;;;;;;;;;;;21.40;57.40;;;;;;5068552;28;19987;-54
2023/07/25 00:11:36;;;;;;;;;;;21.40;57.40;;;;;;5073581;28;19928;-55
2023/07/25 00:14:03;;;;;;;;;;;21.40;57.30;;;;;;5067104;28;19932;-51
2023/07/25 00:16:30;;;;;;;;;;;21.40;57.30;;;;;;5081296;28;19975;-53
2023/07/25 00:18:58;;;;;;;;;;;21.40;57.30;;;;;;5071091;28;19925;-53
2023/07/25 00:21:25;;;;;;;;;;;21.40;57.20;;;;;;5070199;28;19932;-53
2023/07/25 00:23:51;;;;;;;;;;;21.40;57.20;;;;;;5072271;28;20377;-55
2023/07/25 00:26:18;;;;;;;;;;;21.40;57.20;;;;;;5070821;28;19939;-53
2023/07/25 00:28:45;;;;;;;;;;;21.40;57.20;;;;;;5067092;28;20434;-56
2023/07/25 00:31:12;;;;;;;;;;;21.40;57.20;;;;;;5083838;28;19924;-56
2023/07/25 00:33:38;;;;;;;;;;;21.40;57.10;;;;;;5070331;28;19932;-53
2023/07/25 00:36:07;;;;;;;;;;;21.40;57.10;;;;;;5070874;28;19932;-55
2023/07/25 00:38:33;;;;;;;;;;;21.40;57.10;;;;;;5055556;28;19983;-56
2023/07/25 00:41:00;;;;;;;;;;;21.40;57.00;;;;;;5069865;28;20671;-54
2023/07/25 00:43:27;;;;;;;;;;;21.40;57.00;;;;;;5068967;28;19982;-54
2023/07/25 00:45:54;;;;;;;;;;;21.40;57.00;;;;;;5068705;28;19928;-56
2023/07/25 00:48:21;;;;;;;;;;;21.40;57.00;;;;;;5069498;28;19931;-53
2023/07/25 00:50:48;;;;;;;;;;;21.40;57.00;;;;;;5068631;28;19924;-55
2023/07/25 00:53:15;;;;;;;;;;;21.40;57.00;;;;;;5070223;28;20374;-52
2023/07/25 00:55:42;;;;;;;;;;;21.40;57.00;;;;;;5069512;28;19929;-56
2023/07/25 00:58:08;;;;;;;;;;;21.40;57.00;;;;;;5069428;28;20164;-53
2023/07/25 01:00:37;;;;;;;;;;;21.40;56.90;;;;;;5068416;28;19939;-54
2023/07/25 01:03:04;;;;;;;;;;;21.40;56.90;;;;;;5066459;28;19928;-50
2023/07/25 01:05:30;;;;;;;;;;;21.40;56.80;;;;;;5070187;28;19929;-56
2023/07/25 01:07:57;;;;;;;;;;;21.40;56.80;;;;;;5085458;28;20335;-50
2023/07/25 01:10:25;;;;;;;;;;;21.40;56.80;;;;;;5085457;28;19925;-56
2023/07/25 01:12:52;;;;;;;;;;;21.40;56.80;;;;;;5052597;28;19925;-50
2023/07/25 01:15:19;;;;;;;;;;;21.40;56.80;;;;;;5068493;28;19932;-51
2023/07/25 01:17:46;;;;;;;;;;;21.40;56.70;;;;;;5082644;28;19928;-54
2023/07/25 01:20:12;;;;;;;;;;;21.40;56.70;;;;;;5067310;28;19928;-51
2023/07/25 01:22:39;;;;;;;;;;;21.40;56.70;;;;;;5085826;28;19932;-55
2023/07/25 01:25:08;;;;;;;;;;;21.40;56.70;;;;;;5067317;28;19925;-49
2023/07/25 01:27:34;;;;;;;;;;;21.40;56.60;;;;;;5069801;28;19928;-49
2023/07/25 01:30:01;;;;;;;;;;;21.40;56.60;;;;;;5082878;28;20292;-50
2023/07/25 01:32:30;;;;;;;;;;;21.40;56.60;;;;;;5068581;28;19928;-52
2023/07/25 01:34:56;;;;;;;;;;;21.40;56.70;;;;;;5066325;28;19931;-52
2023/07/25 01:37:23;;;;;;;;;;;21.40;56.60;;;;;;5085662;28;19928;-52
2023/07/25 01:39:50;;;;;;;;;;;21.40;56.50;;;;;;5069218;28;19929;-52
2023/07/25 01:42:18;;;;;;;;;;;21.40;56.40;;;;;;5069093;28;19929;-52
2023/07/25 01:44:45;;;;;;;;;;;21.40;56.40;;;;;;5068764;28;19928;-54
2023/07/25 01:47:12;;;;;;;;;;;21.40;56.40;;;;;;5066371;28;19929;-50
2023/07/25 01:49:39;;;;;;;;;;;21.40;56.30;;;;;;5072579;28;19981;-48
2023/07/25 01:52:06;;;;;;;;;;;21.40;56.30;;;;;;5082815;28;19950;-50
2023/07/25 01:54:33;;;;;;;;;;;21.40;56.30;;;;;;5074152;28;19932;-52
2023/07/25 01:57:00;;;;;;;;;;;21.40;56.20;;;;;;5075508;28;19932;-53
2023/07/25 01:59:29;;;;;;;;;;;21.40;56.20;;;;;;5073364;28;19924;-54
2023/07/25 02:01:56;;;;;;;;;;;21.40;56.10;;;;;;5074772;28;19940;-53
2023/07/25 02:04:22;;;;;;;;;;;21.30;56.00;;;;;;5071816;28;19924;-55
2023/07/25 02:06:49;;;;;;;;;;;21.40;56.10;;;;;;5080892;28;19932;-55
2023/07/25 02:09:16;;;;;;;;;;;21.30;55.90;;;;;;5071032;28;20025;-54
2023/07/25 02:11:43;;;;;;;;;;;21.30;55.90;;;;;;5072320;28;19978;-55
2023/07/25 02:14:10;;;;;;;;;;;21.30;55.80;;;;;;5065800;28;19933;-52
2023/07/25 02:16:39;;;;;;;;;;;21.30;55.80;;;;;;5071839;28;19925;-55
2023/07/25 02:19:06;;;;;;;;;;;21.30;55.80;;;;;;5071330;28;19925;-51
2023/07/25 02:21:33;;;;;;;;;;;21.30;55.80;;;;;;5072173;28;19924;-55
2023/07/25 02:24:00;;;;;;;;;;;21.30;55.80;;;;;;5070727;28;19946;-53
2023/07/25 02:26:26;;;;;;;;;;;21.30;55.80;;;;;;5088391;28;19920;-52
2023/07/25 02:28:53;;;;;;;;;;;21.30;55.70;;;;;;5067334;28;19928;-55
2023/07/25 02:31:20;;;;;;;;;;;21.30;55.70;;;;;;5075410;28;19924;-55
2023/07/25 02:33:48;;;;;;;;;;;21.30;55.60;;;;;;5072838;28;20030;-52
2023/07/25 02:36:15;;;;;;;;;;;21.30;55.60;;;;;;5072462;28;19925;-53
2023/07/25 02:38:42;;;;;;;;;;;21.30;55.50;;;;;;5070112;28;19925;-55
2023/07/25 02:41:09;;;;;;;;;;;21.30;55.50;;;;;;5072183;28;19925;-56
2023/07/25 02:43:35;;;;;;;;;;;21.30;55.40;;;;;;5072442;28;19978;-56
2023/07/25 02:46:02;;;;;;;;;;;21.30;55.40;;;;;;5068992;28;19928;-53
2023/07/25 02:48:29;;;;;;;;;;;21.30;55.40;;;;;;5070228;28;19927;-56
2023/07/25 02:50:57;;;;;;;;;;;21.30;55.30;;;;;;5072209;28;19924;-52
2023/07/25 02:53:24;;;;;;;;;;;21.30;55.30;;;;;;5069680;28;19970;-51
2023/07/25 02:55:54;;;;;;;;;;;21.30;55.20;;;;;;5068069;28;19928;-55
2023/07/25 02:58:21;;;;;;;;;;;21.30;55.20;;;;;;5070898;28;20143;-53
2023/07/25 03:00:48;;;;;;;;;;;21.30;55.20;;;;;;5072585;28;19924;-55
2023/07/25 03:03:15;;;;;;;;;;;21.30;55.10;;;;;;5072217;28;20033;-53
2023/07/25 03:05:41;;;;;;;;;;;21.30;55.70;;;;;;5067184;28;20380;-55
2023/07/25 03:08:09;;;;;;;;;;;21.30;55.10;;;;;;5073268;28;19974;-54
2023/07/25 03:10:36;;;;;;;;;;;21.30;55.10;;;;;;5072171;28;19954;-51
2023/07/25 03:13:03;;;;;;;;;;;21.30;55.10;;;;;;5082511;28;19971;-51
2023/07/25 03:15:30;;;;;;;;;;;21.30;55.10;;;;;;5070969;28;19928;-55
2023/07/25 03:17:56;;;;;;;;;;;21.30;55.00;;;;;;5069809;28;19986;-52
2023/07/25 03:20:23;;;;;;;;;;;21.20;54.90;;;;;;5074263;28;19943;-55
2023/07/25 03:22:50;;;;;;;;;;;21.20;54.90;;;;;;5072638;28;19928;-56
2023/07/25 03:25:18;;;;;;;;;;;21.20;54.90;;;;;;5071921;28;19936;-53
2023/07/25 03:27:45;;;;;;;;;;;21.20;54.90;;;;;;5072325;28;19931;-54
2023/07/25 03:30:12;;;;;;;;;;;21.20;54.80;;;;;;5072591;28;19928;-52
2023/07/25 03:32:39;;;;;;;;;;;21.20;54.80;;;;;;5072910;28;19924;-50
2023/07/25 03:35:06;;;;;;;;;;;21.20;54.80;;;;;;5067374;28;19935;-53
2023/07/25 03:37:32;;;;;;;;;;;21.20;54.80;;;;;;5074067;28;19936;-52
2023/07/25 03:39:59;;;;;;;;;;;21.20;54.80;;;;;;5072168;28;19924;-51
2023/07/25 03:42:28;;;;;;;;;;;21.20;54.80;;;;;;5071631;28;20407;-55
2023/07/25 03:44:55;;;;;;;;;;;21.20;54.80;;;;;;5050992;28;19956;-53
2023/07/25 03:47:21;;;;;;;;;;;21.20;54.80;;;;;;5070497;28;20417;-49
2023/07/25 03:49:49;;;;;;;;;;;21.20;54.80;;;;;;5073119;28;19931;-48
2023/07/25 03:52:15;;;;;;;;;;;21.20;54.80;;;;;;5073056;28;19924;-53
2023/07/25 03:54:42;;;;;;;;;;;21.20;54.80;;;;;;5071601;28;19929;-54
2023/07/25 03:57:09;;;;;;;;;;;21.20;55.30;;;;;;5071069;28;19928;-54
2023/07/25 03:59:37;;;;;;;;;;;21.20;54.70;;;;;;5072897;28;19925;-55
2023/07/25 04:02:04;;;;;;;;;;;21.20;54.70;;;;;;5072641;28;19932;-56
2023/07/25 04:04:30;;;;;;;;;;;21.20;54.70;;;;;;5072310;28;19931;-53
2023/07/25 04:06:57;;;;;;;;;;;21.20;54.70;;;;;;5070752;28;19928;-52
2023/07/25 04:09:24;;;;;;;;;;;21.20;54.70;;;;;;5063663;28;19925;-55
2023/07/25 04:11:51;;;;;;;;;;;21.20;54.70;;;;;;5088296;28;19924;-55
2023/07/25 04:14:17;;;;;;;;;;;21.20;55.20;;;;;;5070857;28;19925;-53
2023/07/25 04:16:46;;;;;;;;;;;21.20;54.60;;;;;;5070134;28;19928;-53
2023/07/25 04:19:12;;;;;;;;;;;21.20;54.60;;;;;;5072098;28;19929;-53
2023/07/25 04:21:39;;;;;;;;;;;21.20;54.60;;;;;;5071118;28;19928;-53
2023/07/25 04:24:06;;;;;;;;;;;21.20;54.60;;;;;;5070643;28;19970;-50
2023/07/25 04:26:33;;;;;;;;;;;21.20;54.50;;;;;;5086428;28;19924;-54
2023/07/25 04:29:00;;;;;;;;;;;21.20;54.50;;;;;;5084035;28;19925;-55
2023/07/25 04:31:26;;;;;;;;;;;21.20;54.50;;;;;;5070942;28;19995;-56
2023/07/25 04:33:55;;;;;;;;;;;21.20;54.50;;;;;;5071131;28;19924;-52
2023/07/25 04:36:21;;;;;;;;;;;21.20;54.50;;;;;;5086915;28;19935;-52
2023/07/25 04:38:48;;;;;;;;;;;21.20;54.50;;;;;;5066975;28;19932;-55
2023/07/25 04:41:15;;;;;;;;;;;21.20;54.50;;;;;;5070504;28;19928;-53
2023/07/25 04:43:42;;;;;;;;;;;21.20;54.50;;;;;;5067200;28;19935;-55
2023/07/25 04:46:08;;;;;;;;;;;21.20;54.50;;;;;;5087461;28;19970;-51
2023/07/25 04:48:35;;;;;;;;;;;21.20;55.10;;;;;;5070324;28;19939;-49
2023/07/25 04:51:04;;;;;;;;;;;21.20;54.50;;;;;;5070848;28;19974;-56
2023/07/25 04:53:30;;;;;;;;;;;21.20;54.50;;;;;;5075664;28;19931;-54
2023/07/25 04:55:57;;;;;;;;;;;21.20;54.50;;;;;;5071395;28;19925;-54
2023/07/25 04:58:24;;;;;;;;;;;21.20;54.50;;;;;;5084115;28;19929;-55
2023/07/25 05:00:51;;;;;;;;;;;21.20;54.50;;;;;;5065668;28;19942;-56
2023/07/25 05:03:17;;;;;;;;;;;21.20;54.50;;;;;;5075461;28;20202;-55
2023/07/25 05:05:44;;;;;;;;;;;21.20;54.50;;;;;;5070400;28;19929;-55
2023/07/25 05:08:12;;;;;;;;;;;21.20;54.50;;;;;;5070548;28;19925;-55
2023/07/25 05:10:40;;;;;;;;;;;21.20;54.50;;;;;;5076773;28;19924;-56
2023/07/25 05:13:07;;;;;;;;;;;21.20;54.60;;;;;;5071084;28;19931;-56
2023/07/25 05:15:34;;;;;;;;;;;21.20;54.60;;;;;;5070381;28;19932;-55
2023/07/25 05:18:01;;;;;;;;;;;21.20;54.60;;;;;;5068303;28;19932;-56
2023/07/25 05:20:27;;;;;;;;;;;21.20;54.60;;;;;;5066002;28;19928;-55
2023/07/25 05:22:54;;;;;;;;;;;21.20;54.60;;;;;;5066786;28;19935;-53
2023/07/25 05:25:23;;;;;;;;;;;21.20;54.60;;;;;;5091290;28;19974;-53
2023/07/25 05:27:49;;;;;;;;;;;21.20;54.60;;;;;;5059586;28;19924;-56
2023/07/25 05:30:16;;;;;;;;;;;21.20;54.60;;;;;;5086828;28;19981;-55
2023/07/25 05:32:43;;;;;;;;;;;21.20;54.60;;;;;;5061752;28;19932;-54
2023/07/25 05:35:10;;;;;;;;;;;21.20;54.70;;;;;;5070055;28;19925;-54
2023/07/25 05:37:37;;;;;;;;;;;21.20;54.70;;;;;;5060467;28;19925;-55
2023/07/25 05:40:04;;;;;;;;;;;21.20;54.60;;;;;;5062772;28;19924;-51
2023/07/25 05:42:32;;;;;;;;;;;21.20;54.70;;;;;;5085809;28;19924;-53
2023/07/25 05:44:59;;;;;;;;;;;21.20;54.60;;;;;;5069411;28;20010;-55
2023/07/25 05:47:26;;;;;;;;;;;21.20;54.60;;;;;;5064365;28;20140;-54
2023/07/25 05:49:53;;;;;;;;;;;21.20;54.60;;;;;;5064407;28;19971;-54
2023/07/25 05:52:19;;;;;;;;;;;21.20;54.60;;;;;;5061167;28;19998;-55
2023/07/25 05:54:46;;;;;;;;;;;21.20;54.60;;;;;;5072584;28;19931;-51
2023/07/25 05:57:13;;;;;;;;;;;21.20;54.60;;;;;;5068344;28;19928;-56
2023/07/25 05:59:42;;;;;;;;;;;21.20;54.60;;;;;;5069702;28;19925;-55
2023/07/25 06:02:10;;;;;;;;;;;21.20;54.60;;;;;;5082871;28;19946;-56
2023/07/25 06:04:36;;;;;;;;;;;21.20;54.60;;;;;;5069206;28;19986;-53
2023/07/25 06:07:03;;;;;;;;;;;21.20;54.70;;;;;;5067870;28;20332;-54
2023/07/25 06:09:30;;;;;;;;;;;21.20;54.70;;;;;;5062455;28;19936;-56
2023/07/25 06:11:57;;;;;;;;;;;21.20;54.70;;;;;;5068096;28;19924;-55
2023/07/25 06:14:24;;;;;;;;;;;21.20;54.70;;;;;;5068818;28;19999;-56
2023/07/25 06:16:52;;;;;;;;;;;21.20;54.70;;;;;;5064936;28;19978;-54
2023/07/25 06:19:19;;;;;;;;;;;21.20;54.70;;;;;;5086267;28;19990;-54
2023/07/25 06:21:45;;;;;;;;;;;21.20;54.70;;;;;;5066877;28;19928;-54
2023/07/25 06:24:13;;;;;;;;;;;21.20;54.70;;;;;;5070345;28;19924;-55
2023/07/25 06:26:40;;;;;;;;;;;21.20;54.70;;;;;;5085687;28;19924;-55
2023/07/25 06:29:07;;;;;;;;;;;21.20;54.80;;;;;;5065486;28;19924;-55
2023/07/25 06:31:34;;;;;;;;;;;21.20;54.80;;;;;;5069457;28;19948;-57
2023/07/25 06:34:02;;;;;;;;;;;21.20;55.40;;;;;;5071355;28;19924;-52
2023/07/25 06:36:28;;;;;;;;;;;21.20;54.90;;;;;;5089434;28;19928;-52
2023/07/25 06:38:55;;;;;;;;;;;21.20;54.90;;;;;;5073364;28;19924;-56
2023/07/25 06:41:22;;;;;;;;;;;21.30;55.00;;;;;;5072156;28;19929;-55
2023/07/25 06:43:49;;;;;;;;;;;21.30;55.00;;;;;;5074303;28;19970;-53
2023/07/25 06:46:15;;;;;;;;;;;21.30;55.00;;;;;;5072307;28;19936;-56
2023/07/25 06:48:42;;;;;;;;;;;21.30;55.00;;;;;;5068036;28;20377;-51
2023/07/25 06:51:10;;;;;;;;;;;21.30;55.00;;;;;;5070294;28;19931;-54
2023/07/25 06:53:37;;;;;;;;;;;21.30;55.00;;;;;;5077204;28;19929;-54
2023/07/25 06:56:04;;;;;;;;;;;21.30;55.00;;;;;;5084749;28;19924;-55
2023/07/25 06:58:31;;;;;;;;;;;21.30;55.00;;;;;;5072967;28;20191;-56
2023/07/25 07:00:58;;;;;;;;;;;21.30;55.10;;;;;;5067548;28;20257;-53
2023/07/25 07:03:25;;;;;;;;;;;21.30;55.10;;;;;;5067068;28;19964;-55
2023/07/25 07:05:52;;;;;;;;;;;21.40;55.10;;;;;;5064443;28;19928;-56
2023/07/25 07:08:20;;;;;;;;;;;21.40;55.10;;;;;;5073920;28;19937;-55
2023/07/25 07:10:47;;;;;;;;;;;21.40;55.20;;;;;;5067333;28;19976;-53
2023/07/25 07:13:14;;;;;;;;;;;21.30;55.00;;;;;;5070663;28;20380;-55
2023/07/25 07:15:41;;;;;;;;;;;21.40;55.10;;;;;;5068980;28;19978;-52
2023/07/25 07:18:08;;;;;;;;;;;21.40;55.10;;;;;;5084690;28;19924;-55
2023/07/25 07:20:34;;;;;;;;;;;21.40;55.10;;;;;;5088939;28;19928;-55
2023/07/25 07:23:01;;;;;;;;;;;21.40;55.10;;;;;;5070834;28;19925;-52
2023/07/25 07:25:29;;;;;;;;;;;21.40;55.10;;;;;;5066969;28;20339;-54
2023/07/25 07:27:56;;;;;;;;;;;21.40;55.10;;;;;;5066853;28;19933;-55
2023/07/25 07:30:23;;;;;;;;;;;21.40;55.10;;;;;;5083897;28;19981;-56
2023/07/25 07:32:49;;;;;;;;;;;21.40;55.10;;;;;;5087202;28;19981;-54
2023/07/25 07:35:16;;;;;;;;;;;21.50;55.20;;;;;;5068913;28;19932;-53
2023/07/25 07:37:43;;;;;;;;;;;21.50;55.20;;;;;;5069991;28;19950;-55
2023/07/25 07:40:12;;;;;;;;;;;21.50;55.10;;;;;;5067138;28;20320;-54
2023/07/25 07:42:40;;;;;;;;;;;21.50;55.10;;;;;;5069253;28;19929;-58
2023/07/25 07:45:07;;;;;;;;;;;21.50;55.10;;;;;;5066364;28;19932;-53
2023/07/25 07:47:34;;;;;;;;;;;21.50;55.10;;;;;;5083660;28;20297;-55
2023/07/25 07:50:01;;;;;;;;;;;21.50;55.10;;;;;;5078552;28;19932;-51
2023/07/25 07:52:27;;;;;;;;;;;21.50;55.00;;;;;;5065661;28;19920;-54
2023/07/25 07:54:55;;;;;;;;;;;21.50;55.00;;;;;;5069166;28;19977;-55
2023/07/25 07:57:21;;;;;;;;;;;21.50;54.90;;;;;;5084528;28;19928;-52
2023/07/25 07:59:50;;;;;;;;;;;21.50;55.00;;;;;;5086157;28;19928;-57
2023/07/25 08:02:16;;;;;;;;;;;21.60;55.10;;;;;;5084959;28;19933;-55
2023/07/25 08:04:43;;;;;;;;;;;21.50;54.90;;;;;;5066685;28;19970;-51
2023/07/25 08:07:10;;;;;;;;;;;21.50;54.90;;;;;;5082086;28;19925;-56
2023/07/25 08:09:37;;;;;;;;;;;21.60;54.90;;;;;;5066102;28;20361;-56
2023/07/25 08:12:05;;;;;;;;;;;21.60;54.90;;;;;;5068030;28;19970;-56
2023/07/25 08:14:32;;;;;;;;;;;21.60;54.90;;;;;;5068947;28;19925;-52
2023/07/25 08:17:00;;;;;;;;;;;21.60;54.90;;;;;;5064237;28;19925;-56
2023/07/25 08:19:27;;;;;;;;;;;21.60;54.90;;;;;;5069621;28;19936;-55
2023/07/25 08:21:54;;;;;;;;;;;21.60;54.80;;;;;;5069424;28;19920;-54
2023/07/25 08:24:21;;;;;;;;;;;21.60;54.80;;;;;;5082433;28;19932;-55
2023/07/25 08:26:48;;;;;;;;;;;21.60;54.90;;;;;;5066614;28;19928;-52
2023/07/25 08:29:15;;;;;;;;;;;21.60;54.80;;;;;;5073057;28;19933;-53
2023/07/25 08:31:41;;;;;;;;;;;21.60;54.90;;;;;;5063415;28;19979;-54
2023/07/25 08:34:09;;;;;;;;;;;21.60;54.90;;;;;;5066913;28;19924;-47
2023/07/25 08:36:36;;;;;;;;;;;21.60;54.90;;;;;;5068733;28;19981;-52
2023/07/25 08:39:03;;;;;;;;;;;21.60;54.80;;;;;;5067165;28;19924;-56
2023/07/25 08:41:31;;;;;;;;;;;21.60;54.80;;;;;;5065788;28;19936;-52
2023/07/25 08:43:58;;;;;;;;;;;21.60;54.80;;;;;;5064382;28;19932;-55
2023/07/25 08:46:24;;;;;;;;;;;21.70;54.80;;;;;;5066781;28;19925;-52
2023/07/25 08:48:51;;;;;;;;;;;21.70;54.70;;;;;;5084634;28;19934;-56
2023/07/25 08:51:19;;;;;;;;;;;21.70;54.70;;;;;;5066727;28;19925;-56
2023/07/25 08:53:49;;;;;;;;;;;21.70;54.70;;;;;;5062460;28;20047;-57
2023/07/25 08:56:15;;;;;;;;;;;21.70;54.70;;;;;;5066806;28;19936;-57
2023/07/25 08:58:44;;;;;;;;;;;21.70;54.70;;;;;;5067922;28;19978;-55
2023/07/25 09:01:12;;;;;;;;;;;21.70;54.60;;;;;;5065576;28;19925;-52
2023/07/25 09:03:39;;;;;;;;;;;21.70;54.60;;;;;;5065811;28;19925;-55
2023/07/25 09:06:06;;;;;;;;;;;21.70;54.50;;;;;;5068613;28;19925;-53
2023/07/25 09:08:34;;;;;;;;;;;21.70;54.60;;;;;;5065919;28;19928;-50
2023/07/25 09:11:00;;;;;;;;;;;21.70;54.50;;;;;;5068943;28;19932;-48
2023/07/25 09:13:27;;;;;;;;;;;21.70;54.40;;;;;;5068306;28;19933;-54
2023/07/25 09:15:54;;;;;;;;;;;21.70;54.30;;;;;;5065033;28;19925;-53
2023/07/25 09:18:20;;;;;;;;;;;21.70;54.30;;;;;;5086923;28;19949;-53
2023/07/25 09:20:48;;;;;;;;;;;21.70;54.30;;;;;;5066131;28;19933;-53
2023/07/25 09:23:19;;;;;;;;;;;21.70;54.30;;;;;;5072408;28;19924;-51
2023/07/25 09:25:47;;;;;;;;;;;21.70;54.20;;;;;;5071093;28;19939;-54
2023/07/25 09:28:14;;;;;;;;;;;21.70;54.10;;;;;;5087182;28;19935;-53
2023/07/25 09:30:46;;;;;;;;;;;21.70;54.10;;;;;;5067133;28;19924;-53
2023/07/25 09:33:19;;;;;;;;;;;21.70;54.20;;;;;;5084963;28;19925;-51
2023/07/25 09:35:46;;;;;;;;;;;21.70;54.20;;;;;;5063504;28;19924;-55
2023/07/25 09:38:13;;;;;;;;;;;21.70;54.30;;;;;;5062663;28;19928;-50
2023/07/25 09:40:40;;;;;;;;;;;21.70;54.40;;;;;;5063205;28;19924;-54
2023/07/25 09:43:08;;;;;;;;;;;21.70;54.50;;;;;;5069282;28;19978;-53
2023/07/25 09:45:36;;;;;;;;;;;21.70;54.50;;;;;;5058107;28;19921;-57
2023/07/25 09:48:03;;;;;;;;;;;21.70;54.50;;;;;;5063532;28;19932;-52
2023/07/25 09:50:33;;;;;;;;;;;21.70;54.50;;;;;;5065100;28;19939;-55
2023/07/25 09:53:01;;;;;;;;;;;21.70;54.50;;;;;;5085307;28;19924;-53
2023/07/25 09:55:27;;;;;;;;;;;21.70;54.40;;;;;;5063982;28;19924;-52
2023/07/25 09:57:54;;;;;;;;;;;21.70;54.30;;;;;;5068757;28;19925;-55
2023/07/25 10:00:22;;;;;;;;;;;21.70;54.20;;;;;;5063469;28;19932;-54
2023/07/25 10:02:49;;;;;;;;;;;21.70;54.20;;;;;;5085007;28;19925;-53
2023/07/25 10:05:16;;;;;;;;;;;21.70;54.20;;;;;;5085214;28;19928;-55
2023/07/25 10:07:43;;;;;;;;;;;21.70;54.20;;;;;;5069193;28;19928;-51
2023/07/25 10:10:10;;;;;;;;;;;21.70;54.20;;;;;;5072458;28;19932;-47
2023/07/25 10:12:37;;;;;;;;;;;21.70;54.10;;;;;;5074755;28;19939;-54
2023/07/25 10:15:04;;;;;;;;;;;21.70;54.00;;;;;;5067275;28;20388;-53
2023/07/25 10:17:32;;;;;;;;;;;21.70;54.00;;;;;;5089881;28;19925;-56
2023/07/25 10:19:59;;;;;;;;;;;21.70;53.90;;;;;;5073176;28;19928;-55
2023/07/25 10:22:33;;;;;;;;;;;21.70;53.80;;;;;;5073283;28;19924;-54
2023/07/25 10:24:59;;;;;;;;;;;21.70;53.80;;;;;;5084674;28;19940;-54
2023/07/25 10:27:26;;;;;;;;;;;21.70;53.80;;;;;;5065784;28;19935;-51
2023/07/25 10:29:53;;;;;;;;;;;21.70;53.60;;;;;;5072918;28;19931;-51
2023/07/25 10:32:21;;;;;;;;;;;21.70;53.50;;;;;;5069144;28;19974;-54
2023/07/25 10:34:50;;;;;;;;;;;21.70;53.30;;;;;;5071061;28;19929;-48
2023/07/25 10:37:23;;;;;;;;;;;21.70;53.10;;;;;;5089297;28;19924;-54
2023/07/25 10:40:03;;;;;;;;;;;21.70;53.00;;;;;;5070174;28;19932;-53
2023/07/25 10:42:35;;;;;;;;;;;21.60;52.80;;;;;;5070946;28;19924;-54
2023/07/25 10:45:03;;;;;;;;;;;21.60;52.90;;;;;;5066272;28;19983;-52
2023/07/25 10:47:42;;;;;;;;;;;21.60;53.10;;;;;;5071926;28;19978;-48
2023/07/25 10:50:13;;;;;;;;;;;21.60;53.10;;;;;;5085388;28;19929;-52
2023/07/25 10:52:42;;;;;;;;;;;21.60;53.10;;;;;;5089375;28;19946;-52
2023/07/25 10:55:09;;;;;;;;;;;21.60;53.10;;;;;;5071688;28;19933;-53
2023/07/25 10:57:36;;;;;;;;;;;21.60;53.00;;;;;;5089901;28;19925;-52
2023/07/25 11:00:04;;;;;;;;;;;21.60;52.90;;;;;;5071477;28;19928;-53
2023/07/25 11:02:31;;;;;;;;;;;21.60;52.80;;;;;;5089551;28;19933;-54
2023/07/25 11:05:16;;;;;;;;;;;21.60;52.60;;;;;;5072262;28;20003;-51
2023/07/25 11:07:50;;;;;;;;;;;21.60;52.50;;;;;;5087274;28;19925;-51
2023/07/25 11:10:19;;;;;;;;;;;21.60;52.50;;;;;;5070885;28;19924;-53
2023/07/25 11:12:47;;;;;;;;;;;21.60;52.50;;;;;;5070723;28;19924;-54
2023/07/25 11:15:14;;;;;;;;;;;21.60;52.50;;;;;;5067437;28;19928;-48
2023/07/25 11:17:41;;;;;;;;;;;21.60;52.40;;;;;;5087494;28;19974;-53
2023/07/25 11:20:11;;;;;;;;;;;21.60;52.50;;;;;;5068667;28;19937;-50
2023/07/25 11:22:38;;;;;;;;;;;21.60;52.50;;;;;;5069277;28;20843;-53
2023/07/25 11:25:08;;;;;;;;;;;21.60;52.60;;;;;;5067026;28;20560;-54
2023/07/25 11:27:34;;;;;;;;;;;21.60;52.50;;;;;;5066549;28;19924;-54
2023/07/25 11:30:14;;;;;;;;;;;21.60;52.60;;;;;;5067088;28;19924;-50
2023/07/25 11:32:45;;;;;;;;;;;21.60;52.70;;;;;;5067450;28;19932;-53
2023/07/25 11:35:12;;;;;;;;;;;21.60;52.70;;;;;;5068600;28;19928;-54
2023/07/25 11:37:40;;;;;;;;;;;21.60;52.80;;;;;;5064145;28;19932;-50
2023/07/25 11:40:13;;;;;;;;;;;21.60;52.80;;;;;;5068410;28;20335;-50
2023/07/25 11:42:40;;;;;;;;;;;21.60;52.80;;;;;;5066879;28;19932;-53
2023/07/25 11:45:07;;;;;;;;;;;21.60;52.80;;;;;;5067292;28;19929;-47
2023/07/25 11:47:34;;;;;;;;;;;21.70;52.90;;;;;;5086531;28;20272;-47
2023/07/25 11:50:01;;;;;;;;;;;21.60;52.90;;;;;;5067726;28;19970;-51
2023/07/25 11:52:28;;;;;;;;;;;21.70;52.90;;;;;;5068026;28;19931;-55
2023/07/25 11:54:55;;;;;;;;;;;21.70;53.00;;;;;;5085926;28;19932;-53
2023/07/25 11:57:23;;;;;;;;;;;21.70;53.10;;;;;;5071902;28;19935;-46
2023/07/25 11:59:53;;;;;;;;;;;21.70;53.10;;;;;;5070617;28;19935;-55
2023/07/25 12:02:20;;;;;;;;;;;21.70;53.20;;;;;;5067865;28;19929;-54
2023/07/25 12:04:46;;;;;;;;;;;21.70;53.20;;;;;;5070269;28;19924;-54
2023/07/25 12:07:14;;;;;;;;;;;21.70;53.20;;;;;;5062271;28;19931;-55
2023/07/25 12:09:40;;;;;;;;;;;21.70;53.20;;;;;;5068408;28;19933;-54
2023/07/25 12:12:11;;;;;;;;;;;21.70;53.20;;;;;;5068592;28;20033;-50
2023/07/25 12:14:41;;;;;;;;;;;21.70;53.20;;;;;;5066790;28;19929;-54
2023/07/25 12:17:07;;;;;;;;;;;21.70;53.20;;;;;;5067586;28;19932;-56
2023/07/25 12:19:34;;;;;;;;;;;21.80;53.30;;;;;;5065651;28;19924;-56
2023/07/25 12:22:04;;;;;;;;;;;21.70;53.20;;;;;;5066353;28;19924;-50
2023/07/25 12:24:32;;;;;;;;;;;21.70;53.30;;;;;;5067118;28;20569;-51
2023/07/25 12:27:01;;;;;;;;;;;21.80;53.50;;;;;;5068169;28;19947;-51
2023/07/25 12:29:28;;;;;;;;;;;21.80;53.60;;;;;;5069052;28;19927;-49
2023/07/25 12:31:56;;;;;;;;;;;21.80;53.60;;;;;;5067941;28;19925;-53
2023/07/25 12:34:23;;;;;;;;;;;21.80;53.70;;;;;;5064925;28;20259;-51
2023/07/25 12:36:50;;;;;;;;;;;21.80;53.80;;;;;;5072043;28;20019;-54
2023/07/25 12:39:17;;;;;;;;;;;21.80;53.90;;;;;;5067157;28;20388;-51
2023/07/25 12:41:44;;;;;;;;;;;21.80;54.00;;;;;;5069111;28;19928;-56
2023/07/25 12:44:11;;;;;;;;;;;21.80;54.00;;;;;;5063590;28;19928;-52
2023/07/25 12:46:39;;;;;;;;;;;21.80;54.10;;;;;;5069018;28;19997;-52
2023/07/25 12:49:07;;;;;;;;;;;21.90;54.30;;;;;;5068988;28;19960;-50
2023/07/25 12:51:34;;;;;;;;;;;21.90;54.30;;;;;;5073267;28;19929;-55
2023/07/25 12:54:01;;;;;;;;;;;21.90;54.30;;;;;;5086805;28;19974;-55
2023/07/25 12:56:27;;;;;;;;;;;21.80;54.30;;;;;;5072106;28;19924;-53
2023/07/25 12:58:54;;;;;;;;;;;21.90;54.40;;;;;;5068325;28;20297;-53
2023/07/25 13:01:21;;;;;;;;;;;21.90;54.40;;;;;;5069521;28;20358;-51
2023/07/25 13:03:48;;;;;;;;;;;21.90;54.50;;;;;;5063700;28;19924;-53
2023/07/25 13:06:16;;;;;;;;;;;21.90;54.50;;;;;;5066004;28;19928;-55
2023/07/25 13:08:43;;;;;;;;;;;21.90;54.50;;;;;;5066255;28;19931;-52
2023/07/25 13:11:09;;;;;;;;;;;21.90;54.50;;;;;;5065082;28;19925;-52
2023/07/25 13:13:37;;;;;;;;;;;21.90;54.50;;;;;;5070609;28;19920;-55
2023/07/25 13:16:05;;;;;;;;;;;21.90;54.50;;;;;;5063507;28;20422;-52
2023/07/25 13:18:31;;;;;;;;;;;21.90;54.50;;;;;;5080597;28;19929;-54
2023/07/25 13:21:00;;;;;;;;;;;21.90;54.50;;;;;;5066700;28;19925;-52
2023/07/25 13:23:29;;;;;;;;;;;21.90;54.40;;;;;;5085245;28;19940;-55
2023/07/25 13:25:56;;;;;;;;;;;21.90;54.40;;;;;;5087574;28;19946;-52
2023/07/25 13:28:22;;;;;;;;;;;21.90;54.50;;;;;;5068455;28;19924;-55
2023/07/25 13:30:49;;;;;;;;;;;22.00;54.50;;;;;;5069885;28;19979;-55
2023/07/25 13:33:16;;;;;;;;;;;21.90;54.40;;;;;;5084865;28;19924;-53
2023/07/25 13:35:43;;;;;;;;;;;21.90;54.30;;;;;;5072113;28;19931;-57
2023/07/25 13:38:10;;;;;;;;;;;22.00;54.40;;;;;;5070925;28;19937;-55
2023/07/25 13:40:38;;;;;;;;;;;22.00;54.10;;;;;;5069113;28;19925;-51
2023/07/25 13:43:05;;;;;;;;;;;22.00;53.90;;;;;;5073573;28;20227;-52
2023/07/25 13:45:31;;;;;;;;;;;21.90;53.70;;;;;;5067731;28;19929;-52
2023/07/25 13:47:58;;;;;;;;;;;21.90;53.50;;;;;;5069796;28;19929;-52
2023/07/25 13:50:26;;;;;;;;;;;21.90;53.40;;;;;;5090174;28;19921;-52
2023/07/25 13:52:53;;;;;;;;;;;21.90;53.20;;;;;;5073855;28;19924;-55
2023/07/25 13:55:20;;;;;;;;;;;21.90;52.90;;;;;;5073868;28;19932;-51
2023/07/25 13:57:48;;;;;;;;;;;21.90;52.80;;;;;;5072773;28;19925;-54
2023/07/25 14:00:16;;;;;;;;;;;21.90;52.60;;;;;;5069026;28;19928;-54
2023/07/25 14:02:43;;;;;;;;;;;21.90;52.30;;;;;;5087535;28;20022;-55
2023/07/25 14:05:10;;;;;;;;;;;21.90;51.90;;;;;;5078979;28;19924;-53
2023/07/25 14:07:36;;;;;;;;;;;21.80;51.70;;;;;;5095858;28;19947;-49
2023/07/25 14:10:03;;;;;;;;;;;21.90;51.70;;;;;;5070884;28;19936;-52
2023/07/25 14:12:30;;;;;;;;;;;21.80;51.60;;;;;;5068654;28;19924;-49
2023/07/25 14:14:58;;;;;;;;;;;21.80;51.40;;;;;;5067918;28;19929;-59
2023/07/25 14:17:25;;;;;;;;;;;21.80;50.80;;;;;;5091121;28;19931;-58